DLH139 EDDP-LFKC
Flight info
| Callsign | DLH139 |
|---|---|
| Flight time | 1h 33m |
| Altitude | 37000 |
| Route | GOLAT1K GOLAT T202 TABAT M736 AKOSI DCT TULSI M736 BERAS/N0454F380 DCT OLPIX/N0454F370 DCT EKPEB DCT UNITA/N0380F190 M858 LIGUR |
| Aircraft | A319/M-SDE3FGHIRWY/LB1 |
Departure
| Time | 2026-05-07 13:55 |
|---|---|
| Airport | Leipzig/Halle Airport (EDDP) |
Arrival
| Time | 2026-05-07 15:29 |
|---|---|
| Airport | Calvi Sainte Catherine Airport (LFKC) |
| Time | Latitude | Longitude | Altitude | Speed | Heading |
|---|---|---|---|---|---|
| 2026-05-07 13:32 | 51.41897 | 12.22109 | 436 ft | 0 kts | 15° |
| 2026-05-07 13:43 | 51.41878 | 12.22101 | 436 ft | 4 kts | 15° |
| 2026-05-07 13:43 | 51.41858 | 12.22092 | 431 ft | 0 kts | 15° |
| 2026-05-07 13:44 | 51.41855 | 12.22025 | 422 ft | 2 kts | 285° |
| 2026-05-07 13:44 | 51.41815 | 12.21979 | 427 ft | 3 kts | 285° |
| 2026-05-07 13:48 | 51.41816 | 12.21974 | 436 ft | 1 kts | 285° |
| 2026-05-07 13:48 | 51.41817 | 12.21970 | 436 ft | 0 kts | 284° |
| 2026-05-07 13:50 | 51.41817 | 12.21969 | 436 ft | 1 kts | 284° |
| 2026-05-07 13:50 | 51.41820 | 12.21950 | 423 ft | 2 kts | 284° |
| 2026-05-07 13:50 | 51.41827 | 12.21907 | 427 ft | 6 kts | 285° |
| 2026-05-07 13:50 | 51.41839 | 12.21835 | 432 ft | 8 kts | 285° |
| 2026-05-07 13:51 | 51.41862 | 12.21709 | 437 ft | 15 kts | 287° |
| 2026-05-07 13:51 | 51.41897 | 12.21500 | 427 ft | 22 kts | 285° |
| 2026-05-07 13:51 | 51.41939 | 12.21256 | 421 ft | 23 kts | 285° |
| 2026-05-07 13:51 | 51.41980 | 12.21004 | 427 ft | 22 kts | 284° |
| 2026-05-07 13:52 | 51.41937 | 12.20869 | 425 ft | 15 kts | 195° |
| 2026-05-07 13:52 | 51.41841 | 12.20828 | 425 ft | 14 kts | 195° |
| 2026-05-07 13:52 | 51.41754 | 12.20790 | 427 ft | 13 kts | 195° |
| 2026-05-07 13:52 | 51.41669 | 12.20752 | 430 ft | 13 kts | 195° |
| 2026-05-07 13:53 | 51.41579 | 12.20713 | 430 ft | 14 kts | 195° |
| 2026-05-07 13:53 | 51.41480 | 12.20670 | 431 ft | 15 kts | 195° |
| 2026-05-07 13:53 | 51.41389 | 12.20631 | 439 ft | 13 kts | 195° |
| 2026-05-07 13:53 | 51.41296 | 12.20590 | 434 ft | 15 kts | 197° |
| 2026-05-07 13:54 | 51.41188 | 12.20558 | 439 ft | 16 kts | 168° |
| 2026-05-07 13:54 | 51.41171 | 12.20658 | 436 ft | 9 kts | 79° |
| 2026-05-07 13:54 | 51.41173 | 12.20715 | 429 ft | 2 kts | 85° |
| 2026-05-07 13:54 | 51.41173 | 12.20723 | 429 ft | 4 kts | 85° |
| 2026-05-07 13:55 | 51.41190 | 12.21071 | 441 ft | 61 kts | 85° |
| 2026-05-07 13:55 | 51.41236 | 12.22061 | 458 ft | 117 kts | 86° |
| 2026-05-07 13:55 | 51.41314 | 12.23625 | 575 ft | 155 kts | 84° |
| 2026-05-07 13:55 | 51.41392 | 12.25315 | 1324 ft | 152 kts | 85° |
| 2026-05-07 13:56 | 51.41423 | 12.27023 | 1927 ft | 165 kts | 98° |
| 2026-05-07 13:56 | 51.40659 | 12.28519 | 2299 ft | 193 kts | 155° |
| 2026-05-07 13:56 | 51.39250 | 12.28721 | 2719 ft | 217 kts | 186° |
| 2026-05-07 13:56 | 51.37698 | 12.28498 | 3297 ft | 235 kts | 187° |
| 2026-05-07 13:57 | 51.36011 | 12.28116 | 4077 ft | 243 kts | 202° |
| 2026-05-07 13:57 | 51.34613 | 12.26519 | 4874 ft | 261 kts | 233° |
| 2026-05-07 13:57 | 51.33650 | 12.23996 | 5820 ft | 267 kts | 244° |
| 2026-05-07 13:57 | 51.32653 | 12.21456 | 6782 ft | 275 kts | 230° |
| 2026-05-07 13:58 | 51.31320 | 12.19292 | 7864 ft | 275 kts | 224° |
| 2026-05-07 13:58 | 51.29766 | 12.17486 | 8908 ft | 277 kts | 217° |
| 2026-05-07 13:58 | 51.28139 | 12.15795 | 9885 ft | 281 kts | 215° |
| 2026-05-07 13:58 | 51.26444 | 12.14101 | 10498 ft | 298 kts | 213° |
| 2026-05-07 13:59 | 51.24606 | 12.12311 | 10821 ft | 321 kts | 212° |
| 2026-05-07 13:59 | 51.22658 | 12.10404 | 11359 ft | 334 kts | 213° |
| 2026-05-07 13:59 | 51.20672 | 12.08432 | 12126 ft | 338 kts | 213° |
| 2026-05-07 13:59 | 51.18671 | 12.06415 | 12929 ft | 342 kts | 213° |
| 2026-05-07 14:00 | 51.16659 | 12.04359 | 13723 ft | 345 kts | 213° |
| 2026-05-07 14:00 | 51.14630 | 12.02272 | 14432 ft | 349 kts | 213° |
| 2026-05-07 14:00 | 51.12474 | 12.00452 | 15123 ft | 354 kts | 203° |
| 2026-05-07 14:00 | 51.10107 | 11.99316 | 15818 ft | 358 kts | 192° |
| 2026-05-07 14:01 | 51.07642 | 11.98590 | 16514 ft | 362 kts | 191° |
| 2026-05-07 14:01 | 51.05152 | 11.97866 | 17209 ft | 366 kts | 191° |
| 2026-05-07 14:01 | 51.02635 | 11.97136 | 17906 ft | 370 kts | 191° |
| 2026-05-07 14:01 | 51.00092 | 11.96401 | 18612 ft | 373 kts | 191° |
| 2026-05-07 14:02 | 50.97520 | 11.95656 | 19246 ft | 378 kts | 192° |
| 2026-05-07 14:02 | 50.94920 | 11.94896 | 19810 ft | 383 kts | 191° |
| 2026-05-07 14:02 | 50.92328 | 11.93845 | 20359 ft | 387 kts | 200° |
| 2026-05-07 14:02 | 50.89865 | 11.92060 | 20895 ft | 392 kts | 211° |
| 2026-05-07 14:03 | 50.87602 | 11.89613 | 21423 ft | 397 kts | 218° |
| 2026-05-07 14:03 | 50.85365 | 11.87001 | 21939 ft | 402 kts | 217° |
| 2026-05-07 14:03 | 50.83096 | 11.84368 | 22476 ft | 407 kts | 217° |
| 2026-05-07 14:03 | 50.80802 | 11.81717 | 23006 ft | 411 kts | 217° |
| 2026-05-07 14:04 | 50.78480 | 11.79047 | 23529 ft | 415 kts | 217° |
| 2026-05-07 14:04 | 50.76134 | 11.76352 | 23975 ft | 419 kts | 217° |
| 2026-05-07 14:04 | 50.73770 | 11.73633 | 24423 ft | 422 kts | 217° |
| 2026-05-07 14:04 | 50.71388 | 11.70895 | 24879 ft | 425 kts | 217° |
| 2026-05-07 14:05 | 50.68995 | 11.68145 | 25327 ft | 428 kts | 217° |
| 2026-05-07 14:05 | 50.66572 | 11.65370 | 25768 ft | 431 kts | 216° |
| 2026-05-07 14:05 | 50.64133 | 11.62584 | 26251 ft | 435 kts | 216° |
| 2026-05-07 14:05 | 50.61634 | 11.59890 | 26734 ft | 438 kts | 210° |
| 2026-05-07 14:06 | 50.58856 | 11.57882 | 27202 ft | 441 kts | 198° |
| 2026-05-07 14:06 | 50.55895 | 11.56777 | 27658 ft | 444 kts | 186° |
| 2026-05-07 14:06 | 50.52772 | 11.56615 | 28104 ft | 445 kts | 174° |
| 2026-05-07 14:06 | 50.49725 | 11.57419 | 28549 ft | 445 kts | 162° |
| 2026-05-07 14:07 | 50.46861 | 11.59078 | 28974 ft | 445 kts | 154° |
| 2026-05-07 14:07 | 50.44005 | 11.60991 | 29415 ft | 448 kts | 155° |
| 2026-05-07 14:07 | 50.41130 | 11.62901 | 29854 ft | 450 kts | 155° |
| 2026-05-07 14:07 | 50.38229 | 11.64812 | 30153 ft | 455 kts | 155° |
| 2026-05-07 14:08 | 50.35295 | 11.66734 | 30428 ft | 459 kts | 155° |
| 2026-05-07 14:08 | 50.32335 | 11.68670 | 30746 ft | 461 kts | 155° |
| 2026-05-07 14:08 | 50.29367 | 11.70610 | 31073 ft | 463 kts | 156° |
| 2026-05-07 14:08 | 50.26394 | 11.72554 | 31487 ft | 463 kts | 156° |
| 2026-05-07 14:09 | 50.23428 | 11.74498 | 31934 ft | 462 kts | 156° |
| 2026-05-07 14:09 | 50.20467 | 11.76440 | 32340 ft | 462 kts | 157° |
| 2026-05-07 14:09 | 50.17507 | 11.78377 | 32782 ft | 461 kts | 157° |
| 2026-05-07 14:09 | 50.14557 | 11.80304 | 33271 ft | 459 kts | 158° |
| 2026-05-07 14:10 | 50.11619 | 11.82220 | 33752 ft | 457 kts | 158° |
| 2026-05-07 14:10 | 50.08690 | 11.84125 | 34190 ft | 456 kts | 158° |
| 2026-05-07 14:10 | 50.05770 | 11.86026 | 34585 ft | 455 kts | 159° |
| 2026-05-07 14:10 | 50.02854 | 11.87920 | 34969 ft | 454 kts | 159° |
| 2026-05-07 14:11 | 49.99940 | 11.89809 | 35327 ft | 454 kts | 159° |
| 2026-05-07 14:11 | 49.97026 | 11.91693 | 35665 ft | 453 kts | 159° |
| 2026-05-07 14:11 | 49.94119 | 11.93574 | 36059 ft | 452 kts | 159° |
| 2026-05-07 14:11 | 49.91221 | 11.95448 | 36435 ft | 451 kts | 159° |
| 2026-05-07 14:12 | 49.88327 | 11.97322 | 36777 ft | 450 kts | 159° |
| 2026-05-07 14:12 | 49.85433 | 11.99194 | 36972 ft | 451 kts | 159° |
| 2026-05-07 14:12 | 49.82546 | 12.01058 | 37004 ft | 449 kts | 159° |
| 2026-05-07 14:13 | 49.76788 | 12.04757 | 37007 ft | 448 kts | 160° |
| 2026-05-07 14:13 | 49.70887 | 12.07673 | 37003 ft | 444 kts | 173° |
| 2026-05-07 14:14 | 49.64766 | 12.07693 | 37010 ft | 440 kts | 187° |
| 2026-05-07 14:14 | 49.58670 | 12.06735 | 37011 ft | 440 kts | 187° |
| 2026-05-07 14:15 | 49.52571 | 12.05798 | 37007 ft | 440 kts | 187° |
| 2026-05-07 14:15 | 49.46512 | 12.04883 | 37008 ft | 440 kts | 187° |
| 2026-05-07 14:16 | 49.40413 | 12.03966 | 37021 ft | 440 kts | 187° |
| 2026-05-07 14:16 | 49.34312 | 12.03034 | 37028 ft | 441 kts | 187° |
| 2026-05-07 14:17 | 49.28208 | 12.02098 | 37025 ft | 441 kts | 187° |
| 2026-05-07 14:17 | 49.22104 | 12.01165 | 37032 ft | 441 kts | 187° |
| 2026-05-07 14:18 | 49.16002 | 12.00237 | 37034 ft | 441 kts | 187° |
| 2026-05-07 14:18 | 49.10934 | 11.99475 | 37030 ft | 441 kts | 188° |
| 2026-05-07 14:19 | 49.04837 | 11.98558 | 37033 ft | 440 kts | 188° |
| 2026-05-07 14:19 | 48.98747 | 11.97660 | 37042 ft | 440 kts | 188° |
| 2026-05-07 14:20 | 48.92658 | 11.96755 | 37045 ft | 439 kts | 188° |
| 2026-05-07 14:20 | 48.86581 | 11.95842 | 37038 ft | 439 kts | 188° |
| 2026-05-07 14:21 | 48.80515 | 11.94930 | 37027 ft | 438 kts | 188° |
| 2026-05-07 14:21 | 48.74454 | 11.94036 | 37026 ft | 438 kts | 188° |
| 2026-05-07 14:22 | 48.68386 | 11.93135 | 37011 ft | 438 kts | 188° |
| 2026-05-07 14:22 | 48.62326 | 11.92240 | 37013 ft | 438 kts | 188° |
| 2026-05-07 14:23 | 48.56267 | 11.91348 | 37016 ft | 438 kts | 188° |
| 2026-05-07 14:23 | 48.50196 | 11.90463 | 37022 ft | 438 kts | 188° |
| 2026-05-07 14:24 | 48.44129 | 11.89573 | 37020 ft | 438 kts | 188° |
| 2026-05-07 14:24 | 48.38063 | 11.88678 | 37026 ft | 438 kts | 188° |
| 2026-05-07 14:25 | 48.31988 | 11.87795 | 37028 ft | 438 kts | 188° |
| 2026-05-07 14:25 | 48.25918 | 11.86911 | 37029 ft | 438 kts | 188° |
| 2026-05-07 14:26 | 48.19849 | 11.86025 | 37024 ft | 438 kts | 188° |
| 2026-05-07 14:26 | 48.13784 | 11.85137 | 37021 ft | 438 kts | 188° |
| 2026-05-07 14:27 | 48.07718 | 11.84261 | 37018 ft | 438 kts | 188° |
| 2026-05-07 14:27 | 48.01654 | 11.83389 | 37006 ft | 438 kts | 188° |
| 2026-05-07 14:28 | 47.95584 | 11.82512 | 37005 ft | 438 kts | 188° |
| 2026-05-07 14:28 | 47.89513 | 11.81638 | 37011 ft | 438 kts | 188° |
| 2026-05-07 14:29 | 47.83444 | 11.80777 | 37013 ft | 438 kts | 188° |
| 2026-05-07 14:29 | 47.77377 | 11.79906 | 37005 ft | 438 kts | 189° |
| 2026-05-07 14:30 | 47.71343 | 11.79037 | 37016 ft | 438 kts | 188° |
| 2026-05-07 14:30 | 47.65243 | 11.78406 | 37013 ft | 440 kts | 186° |
| 2026-05-07 14:31 | 47.60562 | 11.78195 | 37005 ft | 440 kts | 185° |
| 2026-05-07 14:31 | 47.54438 | 11.77979 | 36997 ft | 440 kts | 185° |
| 2026-05-07 14:32 | 47.48327 | 11.77685 | 37006 ft | 438 kts | 186° |
| 2026-05-07 14:32 | 47.42241 | 11.77321 | 37006 ft | 438 kts | 186° |
| 2026-05-07 14:33 | 47.36153 | 11.76927 | 36991 ft | 436 kts | 189° |
| 2026-05-07 14:33 | 47.30164 | 11.75617 | 36999 ft | 434 kts | 192° |
| 2026-05-07 14:34 | 47.24198 | 11.74228 | 36991 ft | 434 kts | 193° |
| 2026-05-07 14:34 | 47.18233 | 11.72838 | 36989 ft | 434 kts | 193° |
| 2026-05-07 14:35 | 47.12270 | 11.71466 | 36997 ft | 433 kts | 193° |
| 2026-05-07 14:35 | 47.06314 | 11.70091 | 36982 ft | 433 kts | 193° |
| 2026-05-07 14:36 | 47.00471 | 11.68148 | 36980 ft | 427 kts | 205° |
| 2026-05-07 14:36 | 46.95081 | 11.64574 | 36973 ft | 425 kts | 208° |
| 2026-05-07 14:37 | 46.89712 | 11.60969 | 36975 ft | 424 kts | 208° |
| 2026-05-07 14:37 | 46.81663 | 11.55594 | 36976 ft | 424 kts | 208° |
| 2026-05-07 14:38 | 46.76294 | 11.52026 | 36962 ft | 424 kts | 208° |
| 2026-05-07 14:38 | 46.70930 | 11.48466 | 36962 ft | 423 kts | 208° |
| 2026-05-07 14:39 | 46.65856 | 11.44217 | 36957 ft | 420 kts | 216° |
| 2026-05-07 14:39 | 46.60960 | 11.39582 | 36941 ft | 420 kts | 216° |
| 2026-05-07 14:40 | 46.56092 | 11.35005 | 36969 ft | 420 kts | 216° |
| 2026-05-07 14:40 | 46.51182 | 11.30411 | 36952 ft | 420 kts | 216° |
| 2026-05-07 14:41 | 46.46274 | 11.25816 | 36948 ft | 420 kts | 216° |
| 2026-05-07 14:41 | 46.41367 | 11.21218 | 36963 ft | 420 kts | 216° |
| 2026-05-07 14:42 | 46.36451 | 11.16632 | 37070 ft | 420 kts | 216° |
| 2026-05-07 14:42 | 46.31537 | 11.12065 | 37066 ft | 420 kts | 216° |
| 2026-05-07 14:43 | 46.26621 | 11.07513 | 37066 ft | 420 kts | 216° |
| 2026-05-07 14:43 | 46.21703 | 11.02953 | 37064 ft | 419 kts | 216° |
| 2026-05-07 14:44 | 46.16793 | 10.98397 | 37041 ft | 419 kts | 216° |
| 2026-05-07 14:44 | 46.11882 | 10.93852 | 37028 ft | 420 kts | 216° |
| 2026-05-07 14:45 | 46.06961 | 10.89328 | 37029 ft | 420 kts | 216° |
| 2026-05-07 14:45 | 46.02036 | 10.84825 | 36986 ft | 419 kts | 216° |
| 2026-05-07 14:46 | 45.97122 | 10.80325 | 36990 ft | 418 kts | 216° |
| 2026-05-07 14:46 | 45.92242 | 10.75863 | 36987 ft | 419 kts | 216° |
| 2026-05-07 14:47 | 45.87327 | 10.71375 | 36988 ft | 418 kts | 216° |
| 2026-05-07 14:47 | 45.82418 | 10.66905 | 36983 ft | 418 kts | 216° |
| 2026-05-07 14:48 | 45.77516 | 10.62455 | 36979 ft | 417 kts | 216° |
| 2026-05-07 14:48 | 45.72612 | 10.58000 | 36977 ft | 417 kts | 216° |
| 2026-05-07 14:49 | 45.67710 | 10.53566 | 36960 ft | 417 kts | 216° |
| 2026-05-07 14:49 | 45.62808 | 10.49147 | 36971 ft | 416 kts | 216° |
| 2026-05-07 14:50 | 45.57917 | 10.44746 | 36978 ft | 415 kts | 216° |
| 2026-05-07 14:50 | 45.53032 | 10.40351 | 36981 ft | 415 kts | 216° |
| 2026-05-07 14:51 | 45.48142 | 10.35979 | 36981 ft | 415 kts | 216° |
| 2026-05-07 14:51 | 45.43257 | 10.31623 | 36982 ft | 414 kts | 217° |
| 2026-05-07 14:52 | 45.38425 | 10.27279 | 36955 ft | 414 kts | 217° |
| 2026-05-07 14:52 | 45.33549 | 10.22913 | 36956 ft | 414 kts | 217° |
| 2026-05-07 14:53 | 45.28673 | 10.18573 | 36937 ft | 413 kts | 216° |
| 2026-05-07 14:53 | 45.23801 | 10.14247 | 36959 ft | 413 kts | 216° |
| 2026-05-07 14:54 | 45.18933 | 10.09930 | 36964 ft | 412 kts | 216° |
| 2026-05-07 14:54 | 45.14063 | 10.05625 | 36969 ft | 412 kts | 216° |
| 2026-05-07 14:55 | 45.09198 | 10.01335 | 36965 ft | 412 kts | 216° |
| 2026-05-07 14:55 | 45.04338 | 9.97065 | 36966 ft | 411 kts | 216° |
| 2026-05-07 14:56 | 44.99476 | 9.92795 | 36974 ft | 411 kts | 216° |
| 2026-05-07 14:56 | 44.94615 | 9.88527 | 36959 ft | 411 kts | 216° |
| 2026-05-07 14:57 | 44.89763 | 9.84268 | 36967 ft | 411 kts | 216° |
| 2026-05-07 14:57 | 44.84917 | 9.80030 | 36970 ft | 410 kts | 216° |
| 2026-05-07 14:58 | 44.80069 | 9.75804 | 36968 ft | 410 kts | 216° |
| 2026-05-07 14:58 | 44.75243 | 9.71608 | 36961 ft | 410 kts | 216° |
| 2026-05-07 14:59 | 44.70392 | 9.67398 | 36971 ft | 410 kts | 216° |
| 2026-05-07 14:59 | 44.65540 | 9.63195 | 36984 ft | 409 kts | 216° |
| 2026-05-07 15:00 | 44.60692 | 9.59001 | 36989 ft | 409 kts | 216° |
| 2026-05-07 15:00 | 44.55853 | 9.54816 | 36983 ft | 408 kts | 216° |
| 2026-05-07 15:01 | 44.51010 | 9.50642 | 36990 ft | 408 kts | 216° |
| 2026-05-07 15:01 | 44.46179 | 9.46494 | 36999 ft | 408 kts | 216° |
| 2026-05-07 15:02 | 44.41339 | 9.42340 | 37014 ft | 408 kts | 215° |
| 2026-05-07 15:02 | 44.36511 | 9.38195 | 37008 ft | 408 kts | 215° |
| 2026-05-07 15:03 | 44.31673 | 9.34060 | 37007 ft | 408 kts | 215° |
| 2026-05-07 15:03 | 44.26826 | 9.29927 | 36996 ft | 408 kts | 215° |
| 2026-05-07 15:04 | 44.21978 | 9.25803 | 36981 ft | 408 kts | 215° |
| 2026-05-07 15:04 | 44.17949 | 9.22378 | 36985 ft | 408 kts | 215° |
| 2026-05-07 15:05 | 44.13108 | 9.18262 | 36990 ft | 408 kts | 215° |
| 2026-05-07 15:05 | 44.08264 | 9.14154 | 36995 ft | 408 kts | 215° |
| 2026-05-07 15:06 | 44.03400 | 9.10040 | 36035 ft | 414 kts | 215° |
| 2026-05-07 15:06 | 44.00928 | 9.07954 | 35239 ft | 417 kts | 215° |
| 2026-05-07 15:06 | 43.98450 | 9.05868 | 34265 ft | 416 kts | 216° |
| 2026-05-07 15:07 | 43.95920 | 9.03897 | 32900 ft | 420 kts | 209° |
| 2026-05-07 15:07 | 43.93126 | 9.02544 | 31425 ft | 430 kts | 199° |
| 2026-05-07 15:07 | 43.90129 | 9.01950 | 29969 ft | 440 kts | 191° |
| 2026-05-07 15:07 | 43.87083 | 9.01608 | 28450 ft | 438 kts | 191° |
| 2026-05-07 15:08 | 43.84054 | 9.01253 | 27103 ft | 433 kts | 191° |
| 2026-05-07 15:08 | 43.81109 | 9.00901 | 25894 ft | 427 kts | 190° |
| 2026-05-07 15:08 | 43.78175 | 9.00545 | 24729 ft | 421 kts | 190° |
| 2026-05-07 15:08 | 43.75270 | 9.00201 | 23617 ft | 416 kts | 189° |
| 2026-05-07 15:09 | 43.72397 | 8.99866 | 22325 ft | 411 kts | 189° |
| 2026-05-07 15:09 | 43.69565 | 8.99534 | 21092 ft | 406 kts | 188° |
| 2026-05-07 15:09 | 43.66772 | 8.99206 | 20071 ft | 398 kts | 188° |
| 2026-05-07 15:09 | 43.64082 | 8.98893 | 19635 ft | 378 kts | 188° |
| 2026-05-07 15:10 | 43.61511 | 8.98597 | 19124 ft | 367 kts | 187° |
| 2026-05-07 15:10 | 43.58981 | 8.98302 | 18586 ft | 363 kts | 187° |
| 2026-05-07 15:10 | 43.56467 | 8.98007 | 18017 ft | 360 kts | 187° |
| 2026-05-07 15:10 | 43.53986 | 8.97714 | 17455 ft | 357 kts | 187° |
| 2026-05-07 15:11 | 43.51524 | 8.97416 | 16913 ft | 353 kts | 187° |
| 2026-05-07 15:11 | 43.50545 | 8.97294 | 16687 ft | 351 kts | 187° |
| 2026-05-07 15:11 | 43.50363 | 8.97272 | 16646 ft | 351 kts | 187° |
| 2026-05-07 15:11 | 43.47943 | 8.96967 | 16097 ft | 348 kts | 187° |
| 2026-05-07 15:12 | 43.45574 | 8.96669 | 15556 ft | 345 kts | 187° |
| 2026-05-07 15:12 | 43.43194 | 8.96373 | 15014 ft | 342 kts | 187° |
| 2026-05-07 15:12 | 43.40829 | 8.96081 | 14466 ft | 340 kts | 186° |
| 2026-05-07 15:12 | 43.38476 | 8.95791 | 13922 ft | 339 kts | 186° |
| 2026-05-07 15:13 | 43.36101 | 8.95511 | 13368 ft | 346 kts | 186° |
| 2026-05-07 15:13 | 43.33700 | 8.95241 | 12818 ft | 346 kts | 186° |
| 2026-05-07 15:13 | 43.31308 | 8.94978 | 12301 ft | 344 kts | 186° |
| 2026-05-07 15:13 | 43.28933 | 8.94718 | 11786 ft | 341 kts | 186° |
| 2026-05-07 15:14 | 43.26585 | 8.94462 | 11273 ft | 336 kts | 186° |
| 2026-05-07 15:14 | 43.24267 | 8.94204 | 10764 ft | 331 kts | 186° |
| 2026-05-07 15:14 | 43.22047 | 8.93597 | 10501 ft | 318 kts | 198° |
| 2026-05-07 15:14 | 43.20700 | 8.92903 | 10454 ft | 306 kts | 203° |
| 2026-05-07 15:15 | 43.18133 | 8.91497 | 10316 ft | 288 kts | 202° |
| 2026-05-07 15:15 | 43.16302 | 8.90509 | 10195 ft | 278 kts | 202° |
| 2026-05-07 15:15 | 43.14535 | 8.89560 | 10073 ft | 268 kts | 202° |
| 2026-05-07 15:15 | 43.12827 | 8.88642 | 9907 ft | 261 kts | 202° |
| 2026-05-07 15:16 | 43.11387 | 8.87862 | 9573 ft | 262 kts | 202° |
| 2026-05-07 15:16 | 43.09709 | 8.86949 | 9237 ft | 262 kts | 202° |
| 2026-05-07 15:16 | 43.08021 | 8.86031 | 8905 ft | 261 kts | 202° |
| 2026-05-07 15:16 | 43.06339 | 8.85117 | 8578 ft | 259 kts | 202° |
| 2026-05-07 15:17 | 43.06301 | 8.85096 | 8568 ft | 259 kts | 202° |
| 2026-05-07 15:17 | 43.05726 | 8.84783 | 8457 ft | 259 kts | 202° |
| 2026-05-07 15:17 | 43.05121 | 8.84455 | 8337 ft | 258 kts | 202° |
| 2026-05-07 15:18 | 43.03457 | 8.83551 | 8011 ft | 257 kts | 202° |
| 2026-05-07 15:18 | 43.01791 | 8.82648 | 7686 ft | 256 kts | 202° |
| 2026-05-07 15:18 | 43.00139 | 8.81754 | 7365 ft | 256 kts | 202° |
| 2026-05-07 15:18 | 42.98485 | 8.80860 | 7045 ft | 255 kts | 201° |
| 2026-05-07 15:19 | 42.96839 | 8.79970 | 6722 ft | 254 kts | 201° |
| 2026-05-07 15:19 | 42.95151 | 8.79281 | 6397 ft | 253 kts | 189° |
| 2026-05-07 15:19 | 42.93395 | 8.79143 | 6057 ft | 253 kts | 180° |
| 2026-05-07 15:19 | 42.91639 | 8.79166 | 5732 ft | 252 kts | 180° |
| 2026-05-07 15:20 | 42.89892 | 8.79183 | 5413 ft | 251 kts | 180° |
| 2026-05-07 15:20 | 42.88150 | 8.79198 | 5095 ft | 250 kts | 179° |
| 2026-05-07 15:20 | 42.86412 | 8.79204 | 4787 ft | 249 kts | 179° |
| 2026-05-07 15:20 | 42.84689 | 8.79206 | 4466 ft | 247 kts | 179° |
| 2026-05-07 15:21 | 42.82994 | 8.79204 | 4160 ft | 246 kts | 179° |
| 2026-05-07 15:21 | 42.81290 | 8.79201 | 3850 ft | 244 kts | 179° |
| 2026-05-07 15:21 | 42.79602 | 8.79200 | 3630 ft | 239 kts | 179° |
| 2026-05-07 15:21 | 42.77984 | 8.79197 | 3553 ft | 227 kts | 179° |
| 2026-05-07 15:22 | 42.76443 | 8.79196 | 3460 ft | 216 kts | 179° |
| 2026-05-07 15:22 | 42.74967 | 8.79199 | 3372 ft | 208 kts | 178° |
| 2026-05-07 15:22 | 42.73534 | 8.79203 | 3276 ft | 205 kts | 178° |
| 2026-05-07 15:22 | 42.72112 | 8.79210 | 3188 ft | 204 kts | 178° |
| 2026-05-07 15:23 | 42.70693 | 8.79217 | 3105 ft | 204 kts | 178° |
| 2026-05-07 15:23 | 42.69277 | 8.79225 | 3008 ft | 200 kts | 179° |
| 2026-05-07 15:23 | 42.67907 | 8.79233 | 2774 ft | 196 kts | 179° |
| 2026-05-07 15:23 | 42.66549 | 8.79241 | 2494 ft | 194 kts | 179° |
| 2026-05-07 15:24 | 42.65204 | 8.79247 | 2230 ft | 193 kts | 180° |
| 2026-05-07 15:24 | 42.63865 | 8.79251 | 1996 ft | 191 kts | 180° |
| 2026-05-07 15:24 | 42.62553 | 8.79258 | 1734 ft | 187 kts | 180° |
| 2026-05-07 15:24 | 42.61294 | 8.79266 | 1613 ft | 170 kts | 180° |
| 2026-05-07 15:25 | 42.60182 | 8.79047 | 1584 ft | 156 kts | 201° |
| 2026-05-07 15:25 | 42.59171 | 8.78594 | 1734 ft | 154 kts | 198° |
| 2026-05-07 15:25 | 42.58153 | 8.78174 | 1718 ft | 152 kts | 199° |
| 2026-05-07 15:25 | 42.57146 | 8.77754 | 1667 ft | 152 kts | 199° |
| 2026-05-07 15:26 | 42.56117 | 8.77397 | 1641 ft | 152 kts | 193° |
| 2026-05-07 15:26 | 42.55076 | 8.77175 | 1727 ft | 152 kts | 185° |
| 2026-05-07 15:26 | 42.54030 | 8.77054 | 1779 ft | 146 kts | 185° |
| 2026-05-07 15:26 | 42.53030 | 8.76953 | 1779 ft | 141 kts | 185° |
| 2026-05-07 15:27 | 42.52066 | 8.76877 | 1636 ft | 140 kts | 183° |
| 2026-05-07 15:27 | 42.51102 | 8.76823 | 1488 ft | 136 kts | 182° |
| 2026-05-07 15:27 | 42.50229 | 8.77184 | 1332 ft | 136 kts | 131° |
| 2026-05-07 15:27 | 42.49992 | 8.78354 | 1122 ft | 130 kts | 76° |
| 2026-05-07 15:28 | 42.50561 | 8.79203 | 843 ft | 123 kts | 18° |
| 2026-05-07 15:28 | 42.51399 | 8.79314 | 485 ft | 122 kts | 355° |
| 2026-05-07 15:28 | 42.52231 | 8.79305 | 277 ft | 117 kts | 358° |
| 2026-05-07 15:28 | 42.52958 | 8.79300 | 196 ft | 73 kts | 2° |
| 2026-05-07 15:29 | 42.53401 | 8.79298 | 164 ft | 60 kts | 358° |
| 2026-05-07 15:29 | 42.53593 | 8.79279 | 152 ft | 14 kts | 343° |
| 2026-05-07 15:29 | 42.53596 | 8.79300 | 152 ft | 6 kts | 203° |
| 2026-05-07 15:29 | 42.53495 | 8.79301 | 158 ft | 17 kts | 179° |
| 2026-05-07 15:30 | 42.53370 | 8.79299 | 167 ft | 19 kts | 181° |
| 2026-05-07 15:30 | 42.53226 | 8.79296 | 176 ft | 22 kts | 181° |
| 2026-05-07 15:30 | 42.53060 | 8.79292 | 204 ft | 25 kts | 181° |
| 2026-05-07 15:30 | 42.52894 | 8.79291 | 200 ft | 23 kts | 178° |
| 2026-05-07 15:31 | 42.52742 | 8.79299 | 218 ft | 21 kts | 179° |
| 2026-05-07 15:31 | 42.52609 | 8.79300 | 224 ft | 18 kts | 179° |
| 2026-05-07 15:31 | 42.52492 | 8.79302 | 229 ft | 16 kts | 179° |
| 2026-05-07 15:31 | 42.52436 | 8.79224 | 231 ft | 14 kts | 268° |
| 2026-05-07 15:32 | 42.52427 | 8.79101 | 232 ft | 8 kts | 242° |
| 2026-05-07 15:32 | 42.52416 | 8.79056 | 234 ft | 4 kts | 252° |
| 2026-05-07 15:32 | 42.52411 | 8.79032 | 232 ft | 1 kts | 253° |
| 2026-05-07 15:32 | 42.52410 | 8.79031 | 232 ft | 0 kts | 254° |
| 2026-05-07 15:34 | 42.52411 | 8.79032 | 232 ft | 0 kts | 254° |